createdAt,value
2018-02-22T00:00:04.878Z,1.10
2018-02-22T00:02:31.917Z,1.00
2018-02-22T00:04:58.864Z,1.00
2018-02-22T00:07:25.823Z,1.00
2018-02-22T00:09:52.753Z,1.10
2018-02-22T00:12:19.711Z,1.10
2018-02-22T00:14:46.652Z,1.10
2018-02-22T00:17:13.617Z,1.10
2018-02-22T00:19:40.571Z,1.10
2018-02-22T00:22:07.530Z,1.10
2018-02-22T00:24:34.464Z,1.20
2018-02-22T00:27:01.425Z,1.20
2018-02-22T00:29:29.142Z,1.20
2018-02-22T00:31:57.103Z,1.10
2018-02-22T00:34:25.062Z,1.20
2018-02-22T00:36:51.996Z,1.20
2018-02-22T00:39:19.881Z,1.30
2018-02-22T00:41:46.819Z,1.40
2018-02-22T00:44:13.767Z,1.30
2018-02-22T00:46:40.709Z,1.30
2018-02-22T00:49:07.666Z,1.30
2018-02-22T00:51:34.600Z,1.30
2018-02-22T00:54:01.557Z,1.40
2018-02-22T00:56:28.504Z,1.30
2018-02-22T00:58:55.452Z,1.30
2018-02-22T01:01:22.391Z,1.50
2018-02-22T01:03:49.342Z,1.40
2018-02-22T01:06:16.291Z,1.50
2018-02-22T01:08:43.244Z,1.40
2018-02-22T01:11:10.175Z,1.40
2018-02-22T01:13:37.123Z,1.40
2018-02-22T01:16:04.059Z,1.40
2018-02-22T01:18:31.012Z,1.40
2018-02-22T01:20:57.947Z,1.40
2018-02-22T01:23:24.902Z,1.50
2018-02-22T01:25:51.836Z,1.50
2018-02-22T01:28:18.798Z,1.50
2018-02-22T01:30:45.734Z,1.50
2018-02-22T01:33:12.679Z,1.50
2018-02-22T01:35:39.608Z,1.40
2018-02-22T01:38:06.560Z,1.50
2018-02-22T01:40:33.496Z,1.50
2018-02-22T01:43:00.441Z,1.40
2018-02-22T01:45:27.376Z,1.30
2018-02-22T01:47:56.278Z,1.30
2018-02-22T01:50:23.213Z,1.40
2018-02-22T01:52:50.155Z,1.50
2018-02-22T01:55:17.084Z,1.40
2018-02-22T01:57:44.028Z,1.60
2018-02-22T02:00:10.961Z,1.60
2018-02-22T02:02:38.680Z,1.60
2018-02-22T02:05:05.612Z,1.60
2018-02-22T02:07:33.571Z,1.60
2018-02-22T02:10:00.500Z,1.60
2018-02-22T02:12:27.445Z,1.60
2018-02-22T02:14:54.429Z,1.50
2018-02-22T02:17:21.368Z,1.60
2018-02-22T02:19:48.312Z,1.60
2018-02-22T02:22:15.249Z,1.50
2018-02-22T02:24:43.213Z,1.50
2018-02-22T02:27:10.149Z,1.60
2018-02-22T02:29:37.099Z,1.50
2018-02-22T02:32:04.036Z,1.60
2018-02-22T02:34:30.988Z,1.60
2018-02-22T02:36:57.923Z,1.60
2018-02-22T02:39:24.875Z,1.60
2018-02-22T02:41:51.818Z,1.50
2018-02-22T02:44:18.777Z,1.60
2018-02-22T02:46:45.717Z,1.50
2018-02-22T02:49:12.663Z,1.50
2018-02-22T02:51:39.594Z,1.50
2018-02-22T02:54:06.535Z,1.40
2018-02-22T02:56:33.463Z,1.40
2018-02-22T02:59:01.195Z,1.40
2018-02-22T03:01:28.140Z,1.40
2018-02-22T03:03:55.087Z,1.50
2018-02-22T03:06:22.029Z,1.50
2018-02-22T03:08:48.975Z,1.60
2018-02-22T03:11:15.908Z,1.60
2018-02-22T03:13:42.860Z,1.60
2018-02-22T03:16:10.552Z,1.80
2018-02-22T03:18:38.263Z,1.80
2018-02-22T03:21:05.191Z,1.80
2018-02-22T03:23:32.148Z,1.90
2018-02-22T03:25:59.080Z,1.80
2018-02-22T03:28:26.044Z,1.70
2018-02-22T03:30:52.986Z,1.70
2018-02-22T03:33:19.944Z,1.80
2018-02-22T03:35:47.868Z,1.70
2018-02-22T03:38:14.800Z,1.70
2018-02-22T03:40:42.480Z,1.70
2018-02-22T03:43:09.478Z,1.70
2018-02-22T03:45:37.366Z,1.60
2018-02-22T03:48:05.094Z,1.60
2018-02-22T03:50:32.032Z,1.60
2018-02-22T03:52:58.980Z,1.60
2018-02-22T03:55:25.920Z,1.50
2018-02-22T03:57:52.879Z,1.50
2018-02-22T04:00:19.808Z,1.40
2018-02-22T04:02:46.765Z,1.40
2018-02-22T04:05:13.711Z,1.40
2018-02-22T04:07:40.673Z,1.30
2018-02-22T04:10:07.623Z,1.30
2018-02-22T04:12:34.589Z,1.30
2018-02-22T04:15:01.533Z,1.30
2018-02-22T04:17:28.484Z,1.30
2018-02-22T04:19:55.415Z,1.20
2018-02-22T04:22:24.132Z,1.30
2018-02-22T04:24:51.069Z,1.30
2018-02-22T04:27:18.032Z,1.30
2018-02-22T04:29:44.967Z,1.30
2018-02-22T04:32:11.929Z,1.30
2018-02-22T04:34:39.872Z,1.30
2018-02-22T04:37:06.845Z,1.30
2018-02-22T04:39:33.789Z,1.30
2018-02-22T04:42:00.717Z,1.40
2018-02-22T04:44:27.668Z,1.40
2018-02-22T04:46:54.601Z,1.30
2018-02-22T04:49:21.552Z,1.40
2018-02-22T04:51:48.489Z,1.50
2018-02-22T04:54:15.427Z,1.50
2018-02-22T04:56:42.363Z,1.50
2018-02-22T04:59:09.311Z,1.60
2018-02-22T05:01:36.236Z,1.50
2018-02-22T05:04:03.944Z,1.30
2018-02-22T05:06:30.876Z,1.30
2018-02-22T05:08:57.837Z,1.40
2018-02-22T05:11:24.782Z,1.40
2018-02-22T05:13:51.743Z,1.30
2018-02-22T05:16:18.686Z,1.30
2018-02-22T05:18:45.613Z,1.40
2018-02-22T05:21:12.520Z,1.30
2018-02-22T05:23:40.384Z,1.30
2018-02-22T05:26:08.052Z,1.20
2018-02-22T05:28:35.917Z,1.30
2018-02-22T05:31:02.820Z,1.20
2018-02-22T05:33:29.753Z,1.20
2018-02-22T05:35:56.665Z,1.10
2018-02-22T05:38:23.592Z,1.10
2018-02-22T05:40:50.512Z,1.10
2018-02-22T05:43:17.429Z,1.10
2018-02-22T05:45:44.363Z,1.20
2018-02-22T05:48:11.268Z,1.10
2018-02-22T05:50:39.956Z,1.00
2018-02-22T05:53:06.869Z,1.00
2018-02-22T05:55:33.773Z,1.00
2018-02-22T05:58:00.701Z,1.00
2018-02-22T06:00:28.678Z,1.00
2018-02-22T06:02:55.594Z,1.00
2018-02-22T06:05:23.289Z,0.90
2018-02-22T06:07:50.199Z,0.90
2018-02-22T06:10:17.881Z,0.70
2018-02-22T06:12:44.817Z,0.70
2018-02-22T06:15:11.759Z,0.60
2018-02-22T06:17:38.674Z,0.60
2018-02-22T06:20:05.578Z,0.60
2018-02-22T06:22:32.505Z,0.70
2018-02-22T06:24:59.411Z,0.60
2018-02-22T06:27:26.337Z,0.60
2018-02-22T06:29:53.256Z,0.70
2018-02-22T06:32:21.188Z,0.80
2018-02-22T06:34:48.092Z,0.80
2018-02-22T06:37:17.021Z,0.80
2018-02-22T06:39:44.700Z,0.90
2018-02-22T06:42:11.624Z,0.90
2018-02-22T06:44:39.342Z,0.90
2018-02-22T06:47:07.240Z,0.80
2018-02-22T06:49:34.938Z,0.80
2018-02-22T06:52:01.857Z,0.80
2018-02-22T06:54:29.541Z,0.70
2018-02-22T06:56:56.459Z,0.70
2018-02-22T06:59:24.333Z,0.80
2018-02-22T07:01:52.013Z,0.80
2018-02-22T07:04:18.942Z,0.70
2018-02-22T07:06:45.851Z,0.60
2018-02-22T07:09:13.774Z,0.70
2018-02-22T07:11:40.689Z,0.70
2018-02-22T07:14:08.385Z,0.90
2018-02-22T07:16:35.296Z,0.80
2018-02-22T07:19:03.998Z,1.10
2018-02-22T07:21:30.914Z,1.00
2018-02-22T07:23:57.840Z,1.00
2018-02-22T07:26:25.728Z,1.20
2018-02-22T07:28:52.654Z,1.40
2018-02-22T07:31:19.564Z,1.30
2018-02-22T07:33:49.717Z,1.20
2018-02-22T07:36:16.633Z,1.20
2018-02-22T07:38:44.568Z,1.30
2018-02-22T07:41:11.479Z,1.30
2018-02-22T07:43:38.400Z,1.40
2018-02-22T07:46:05.308Z,1.40
2018-02-22T07:48:32.232Z,1.40
2018-02-22T07:51:00.915Z,1.20
2018-02-22T07:53:30.529Z,1.50
2018-02-22T07:55:58.203Z,1.40
2018-02-22T07:58:25.135Z,1.40
2018-02-22T08:00:52.813Z,1.40
2018-02-22T08:03:20.680Z,1.40
2018-02-22T08:05:47.610Z,1.50
2018-02-22T08:08:15.304Z,1.70
2018-02-22T08:10:42.221Z,1.70
2018-02-22T08:13:12.283Z,1.60
2018-02-22T08:15:40.213Z,1.70
2018-02-22T08:18:07.144Z,1.70
2018-02-22T08:20:34.820Z,1.70
2018-02-22T08:23:01.747Z,1.70
2018-02-22T08:25:30.420Z,2.00
2018-02-22T08:27:57.344Z,1.90
2018-02-22T08:30:24.256Z,1.90
2018-02-22T08:32:51.181Z,2.00
2018-02-22T08:35:18.101Z,2.10
2018-02-22T08:37:45.792Z,1.80
2018-02-22T08:40:12.712Z,1.80
2018-02-22T08:42:42.342Z,2.00
2018-02-22T08:45:09.278Z,2.00
2018-02-22T08:47:36.949Z,2.00
2018-02-22T08:50:03.853Z,2.00
2018-02-22T08:52:30.746Z,1.90
2018-02-22T08:54:58.578Z,2.10
2018-02-22T08:57:26.251Z,2.30
2018-02-22T08:59:53.934Z,2.30
2018-02-22T09:02:20.828Z,2.30
2018-02-22T09:04:48.722Z,2.10
2018-02-22T09:07:16.386Z,2.20
2018-02-22T09:09:44.976Z,2.30
2018-02-22T09:12:11.892Z,2.30
2018-02-22T09:14:38.817Z,2.20
2018-02-22T09:17:06.712Z,2.20
2018-02-22T09:19:34.407Z,2.40
2018-02-22T09:22:01.320Z,2.30
2018-02-22T09:24:29.024Z,2.40
2018-02-22T09:26:55.946Z,2.40
2018-02-22T09:29:22.872Z,2.50
2018-02-22T09:31:50.550Z,2.40
2018-02-22T09:34:17.476Z,2.40
2018-02-22T09:36:45.153Z,2.70
2018-02-22T09:39:12.084Z,2.70
2018-02-22T09:41:38.983Z,2.70
2018-02-22T09:44:05.894Z,2.60
2018-02-22T09:46:32.812Z,2.70
2018-02-22T09:49:00.508Z,2.90
2018-02-22T09:51:27.420Z,2.90
2018-02-22T09:53:55.127Z,3.10
2018-02-22T09:56:22.037Z,3.10
2018-02-22T09:58:49.710Z,3.00
2018-02-22T10:01:16.641Z,3.00
2018-02-22T10:03:44.319Z,2.70
2018-02-22T10:06:11.274Z,2.70
2018-02-22T10:08:38.194Z,2.70
2018-02-22T10:11:05.149Z,2.90
2018-02-22T10:13:32.066Z,2.80
2018-02-22T10:15:59.771Z,2.80
2018-02-22T10:18:26.689Z,2.80
2018-02-22T10:20:54.373Z,2.80
2018-02-22T10:23:21.300Z,2.80
2018-02-22T10:25:48.208Z,2.90
2018-02-22T10:28:15.135Z,3.10
2018-02-22T10:30:44.083Z,3.10
2018-02-22T10:33:12.920Z,3.20
2018-02-22T10:35:39.830Z,3.10
2018-02-22T10:38:06.765Z,3.30
2018-02-22T10:40:33.676Z,3.10
2018-02-22T10:43:00.619Z,3.00
2018-02-22T10:45:28.489Z,2.90
2018-02-22T10:47:57.188Z,3.00
2018-02-22T10:50:24.087Z,3.00
2018-02-22T10:52:51.008Z,3.30
2018-02-22T10:55:18.827Z,3.10
2018-02-22T10:57:46.516Z,2.90
2018-02-22T11:00:14.370Z,3.00
2018-02-22T11:02:42.257Z,3.20
2018-02-22T11:05:10.092Z,3.40
2018-02-22T11:07:42.067Z,3.20
2018-02-22T11:10:09.771Z,3.30
2018-02-22T11:12:36.677Z,3.20
2018-02-22T11:15:04.554Z,3.30
2018-02-22T11:17:32.396Z,3.40
2018-02-22T11:20:00.094Z,3.40
2018-02-22T11:22:30.468Z,3.30
2018-02-22T11:24:57.408Z,3.50
2018-02-22T11:27:24.361Z,3.60
2018-02-22T11:29:51.289Z,3.60
2018-02-22T11:32:18.204Z,3.50
2018-02-22T11:34:46.429Z,3.60
2018-02-22T11:37:13.345Z,3.80
2018-02-22T11:39:40.288Z,3.70
2018-02-22T11:42:08.117Z,3.70
2018-02-22T11:44:39.769Z,3.60
2018-02-22T11:47:06.680Z,3.60
2018-02-22T11:49:33.610Z,3.60
2018-02-22T11:52:00.568Z,3.60
2018-02-22T11:54:28.474Z,3.50
2018-02-22T11:56:55.676Z,3.50
2018-02-22T11:59:22.601Z,3.40
2018-02-22T12:01:50.416Z,3.30
2018-02-22T12:04:18.105Z,3.30
2018-02-22T12:06:45.031Z,3.30
2018-02-22T12:09:12.925Z,3.30
2018-02-22T12:11:40.856Z,3.40
2018-02-22T12:14:09.575Z,3.20
2018-02-22T12:16:36.505Z,3.30
2018-02-22T12:19:03.432Z,3.30
2018-02-22T12:21:30.345Z,3.20
2018-02-22T12:23:57.264Z,3.30
2018-02-22T12:26:26.099Z,3.20
2018-02-22T12:28:53.780Z,3.00
2018-02-22T12:31:22.368Z,3.00
2018-02-22T12:33:49.292Z,3.00
2018-02-22T12:36:16.201Z,3.00
2018-02-22T12:38:43.166Z,2.90
2018-02-22T12:41:11.040Z,3.00
2018-02-22T12:43:38.782Z,3.10
2018-02-22T12:46:08.042Z,3.00
2018-02-22T12:48:34.993Z,3.10
2018-02-22T12:51:02.921Z,3.10
2018-02-22T12:53:31.520Z,3.30
2018-02-22T12:55:58.444Z,3.30
2018-02-22T12:58:26.152Z,3.70
2018-02-22T13:00:53.972Z,3.70
2018-02-22T13:03:21.681Z,4.00
2018-02-22T13:05:48.582Z,4.00
2018-02-22T13:08:17.284Z,4.50
2018-02-22T13:10:45.140Z,4.50
2018-02-22T13:13:12.840Z,4.80
2018-02-22T13:15:40.771Z,4.90
2018-02-22T13:18:08.471Z,5.30
2018-02-22T13:20:35.385Z,5.30
2018-02-22T13:23:02.341Z,5.20
2018-02-22T13:25:29.253Z,5.20
2018-02-22T13:27:57.094Z,5.00
2018-02-22T13:30:24.011Z,4.90
2018-02-22T13:33:02.734Z,5.10
2018-02-22T13:35:29.648Z,5.70
2018-02-22T13:38:17.268Z,6.90
2018-02-22T13:40:44.968Z,6.60
2018-02-22T13:43:11.886Z,6.60
2018-02-22T13:45:38.813Z,6.00
2018-02-22T13:48:06.498Z,5.20
2018-02-22T13:50:46.442Z,5.20
2018-02-22T13:53:13.344Z,5.00
2018-02-22T13:55:41.201Z,4.70
2018-02-22T13:58:08.114Z,4.50
2018-02-22T14:00:46.971Z,4.80
2018-02-22T14:03:13.887Z,5.20
2018-02-22T14:05:40.817Z,5.20
2018-02-22T14:08:07.734Z,5.10
2018-02-22T14:10:35.420Z,4.60
2018-02-22T14:13:02.339Z,4.60
2018-02-22T14:15:31.049Z,4.40
2018-02-22T14:17:57.961Z,4.40
2018-02-22T14:20:24.889Z,5.10
2018-02-22T14:22:51.809Z,5.30
2018-02-22T14:25:19.641Z,5.10
2018-02-22T14:27:47.326Z,5.00
2018-02-22T14:30:15.485Z,5.00
2018-02-22T14:32:42.383Z,5.10
2018-02-22T14:35:09.343Z,5.40
2018-02-22T14:37:37.021Z,5.70
2018-02-22T14:40:03.960Z,5.70
2018-02-22T14:42:30.943Z,5.00
2018-02-22T14:44:57.972Z,5.30
2018-02-22T14:47:24.905Z,5.50
2018-02-22T14:49:51.847Z,5.20
2018-02-22T14:52:18.792Z,5.00
2018-02-22T14:54:46.647Z,4.60
2018-02-22T14:57:13.562Z,4.40
2018-02-22T14:59:40.497Z,4.20
2018-02-22T15:02:09.425Z,4.20
2018-02-22T15:04:37.120Z,4.10
2018-02-22T15:07:04.032Z,4.00
2018-02-22T15:09:31.902Z,4.00
2018-02-22T15:11:58.812Z,4.10
2018-02-22T15:14:25.789Z,3.90
2018-02-22T15:16:52.670Z,3.90
2018-02-22T15:19:19.597Z,3.70
2018-02-22T15:21:46.509Z,3.60
2018-02-22T15:24:14.208Z,3.60
2018-02-22T15:26:42.028Z,3.60
2018-02-22T15:29:10.745Z,3.30
2018-02-22T15:31:37.665Z,3.30
2018-02-22T15:34:05.357Z,3.10
2018-02-22T15:36:32.272Z,3.10
2018-02-22T15:38:59.968Z,2.90
2018-02-22T15:41:26.885Z,2.90
2018-02-22T15:43:54.601Z,2.80
2018-02-22T15:46:21.528Z,2.80
2018-02-22T15:48:48.463Z,2.90
2018-02-22T15:51:16.292Z,2.80
2018-02-22T15:53:43.980Z,3.10
2018-02-22T15:56:10.884Z,3.00
2018-02-22T15:58:37.815Z,3.10
2018-02-22T16:44:46.792Z,2.80
2018-02-22T16:47:14.580Z,1.10
2018-02-22T16:49:47.098Z,1.00
2018-02-22T16:52:16.710Z,1.20
2018-02-22T16:54:45.557Z,1.20
2018-02-22T16:57:12.493Z,1.30
2018-02-22T16:59:39.413Z,1.60
2018-02-22T17:02:06.411Z,1.80
2018-02-22T17:04:33.331Z,1.90
2018-02-22T17:07:00.264Z,1.90
2018-02-22T17:09:28.073Z,1.80
2018-02-22T17:11:55.807Z,1.50
2018-02-22T17:14:22.736Z,1.50
2018-02-22T17:16:50.680Z,1.40
2018-02-22T17:19:17.604Z,1.40
2018-02-22T17:21:46.323Z,1.50
2018-02-22T17:24:13.234Z,1.50
2018-02-22T17:26:40.955Z,1.50
2018-02-22T17:29:08.876Z,1.50
2018-02-22T17:31:35.836Z,1.40
2018-02-22T17:34:02.759Z,1.40
2018-02-22T17:36:30.455Z,1.50
2018-02-22T17:38:57.402Z,1.50
2018-02-22T17:41:24.340Z,1.60
2018-02-22T17:43:51.360Z,1.60
2018-02-22T17:46:19.057Z,1.20
2018-02-22T17:48:46.983Z,1.20
2018-02-22T17:51:14.694Z,1.00
2018-02-22T17:53:41.612Z,1.00
2018-02-22T17:56:08.541Z,0.90
2018-02-22T17:58:38.297Z,0.80
2018-02-22T18:01:05.226Z,0.70
2018-02-22T18:03:33.165Z,0.60
2018-02-22T18:06:01.655Z,0.50
2018-02-22T18:08:28.665Z,0.50
2018-02-22T18:10:59.993Z,0.50
2018-02-22T18:13:26.948Z,0.40
2018-02-22T18:15:55.903Z,0.40
2018-02-22T18:18:29.345Z,0.60
2018-02-22T18:20:57.236Z,0.60
2018-02-22T18:23:24.172Z,0.70
2018-02-22T18:25:52.708Z,0.60
2018-02-22T18:28:19.630Z,0.50
2018-02-22T18:30:47.583Z,0.50
2018-02-22T18:33:14.584Z,0.40
2018-02-22T18:35:41.498Z,0.40
2018-02-22T18:38:09.436Z,0.60
2018-02-22T18:40:36.459Z,0.60
2018-02-22T18:43:04.273Z,0.60
2018-02-22T18:45:33.390Z,0.60
2018-02-22T18:48:00.313Z,0.60
2018-02-22T18:50:29.222Z,0.50
2018-02-22T18:52:56.154Z,0.40
2018-02-22T18:55:23.881Z,0.40
2018-02-22T18:57:50.861Z,0.40
2018-02-22T19:00:18.703Z,0.20
2018-02-22T19:02:45.640Z,0.20
2018-02-22T19:05:12.566Z,0.20
2018-02-22T19:07:39.488Z,0.20
2018-02-22T19:10:07.326Z,0.10
2018-02-22T19:12:36.957Z,0.00
2018-02-22T19:15:04.797Z,0.00
2018-02-22T19:17:33.508Z,0.00
2018-02-22T19:20:00.492Z,0.00
2018-02-22T19:22:30.652Z,0.00
2018-02-22T19:24:58.568Z,-0.10
2018-02-22T19:27:25.484Z,-0.10
2018-02-22T19:29:52.425Z,-0.20
2018-02-22T19:32:19.337Z,-0.20
2018-02-22T19:34:51.451Z,-0.20
2018-02-22T19:37:18.417Z,-0.20
2018-02-22T19:39:46.274Z,-0.20
2018-02-22T19:42:13.180Z,-0.30
2018-02-22T19:44:40.103Z,-0.20
2018-02-22T19:47:08.010Z,-0.10
2018-02-22T19:49:35.859Z,-0.20
2018-02-22T19:52:02.798Z,-0.20
2018-02-22T19:54:29.728Z,-0.20
2018-02-22T19:56:57.784Z,-0.20
2018-02-22T19:59:24.688Z,-0.30
2018-02-22T20:01:52.580Z,-0.20
2018-02-22T20:04:19.500Z,-0.20
2018-02-22T20:06:47.432Z,-0.20
2018-02-22T20:09:15.250Z,-0.20
2018-02-22T20:11:42.188Z,-0.30
2018-02-22T20:14:09.128Z,-0.40
2018-02-22T20:16:36.121Z,-0.30
2018-02-22T20:19:06.489Z,-0.30
2018-02-22T20:21:35.441Z,-0.40
2018-02-22T20:24:02.354Z,-0.30
2018-02-22T20:26:29.300Z,-0.40
2018-02-22T20:28:56.209Z,-0.30
2018-02-22T20:31:23.912Z,-0.30
2018-02-22T20:33:50.832Z,-0.30
2018-02-22T20:36:18.665Z,-0.30
2018-02-22T20:38:47.596Z,-0.40
2018-02-22T20:41:14.548Z,-0.30
2018-02-22T20:43:45.181Z,-0.30
2018-02-22T20:46:12.108Z,-0.10
2018-02-22T20:48:39.025Z,0.00
2018-02-22T20:51:05.964Z,0.20
2018-02-22T20:53:34.957Z,0.30
2018-02-22T20:56:01.901Z,0.50
2018-02-22T20:58:28.817Z,0.60
2018-02-22T21:00:55.743Z,0.60
2018-02-22T21:03:22.653Z,0.60
2018-02-22T21:05:50.366Z,0.80
2018-02-22T21:08:17.259Z,0.80
2018-02-22T21:10:44.204Z,0.80
2018-02-22T21:13:12.076Z,1.00
2018-02-22T21:15:39.776Z,0.90
2018-02-22T21:18:07.057Z,0.90
2018-02-22T21:20:34.179Z,0.90
2018-02-22T21:23:03.695Z,0.90
2018-02-22T21:25:30.729Z,1.00
2018-02-22T21:27:58.557Z,1.00
2018-02-22T21:30:25.496Z,1.00
2018-02-22T21:32:53.176Z,1.10
2018-02-22T21:35:20.105Z,1.10
2018-02-22T21:37:47.013Z,1.10
2018-02-22T21:40:14.853Z,1.10
2018-02-22T21:42:42.172Z,1.00
2018-02-22T21:45:09.110Z,1.00
2018-02-22T21:47:36.020Z,0.90
2018-02-22T21:50:02.947Z,0.80
2018-02-22T21:52:29.885Z,0.60
2018-02-22T21:54:57.579Z,0.50
2018-02-22T21:57:25.400Z,0.60
2018-02-22T21:59:56.683Z,0.40
2018-02-22T22:02:24.520Z,0.60
2018-02-22T22:04:51.469Z,0.50
2018-02-22T22:07:19.169Z,0.60
2018-02-22T22:09:46.095Z,0.60
2018-02-22T22:12:13.007Z,0.60
2018-02-22T22:14:40.708Z,0.70
2018-02-22T22:17:07.629Z,0.80
2018-02-22T22:19:34.741Z,0.90
2018-02-22T22:22:01.656Z,1.10
2018-02-22T22:24:28.587Z,0.90
2018-02-22T22:26:55.484Z,0.90
2018-02-22T22:29:22.420Z,0.90
2018-02-22T22:31:50.311Z,1.10
2018-02-22T22:34:17.990Z,1.00
2018-02-22T22:36:44.910Z,1.00
2018-02-22T22:39:12.585Z,1.00
2018-02-22T22:41:40.457Z,1.00
2018-02-22T22:44:08.209Z,1.10
2018-02-22T22:46:35.085Z,1.30
2018-02-22T22:49:01.988Z,1.10
2018-02-22T22:51:28.921Z,1.20
2018-02-22T22:53:55.827Z,1.10
2018-02-22T22:56:22.761Z,1.20
2018-02-22T22:58:49.665Z,1.20
2018-02-22T23:01:16.640Z,1.20
2018-02-22T23:03:44.492Z,1.10
2018-02-22T23:06:11.428Z,1.20
2018-02-22T23:08:39.284Z,1.30
2018-02-22T23:11:06.993Z,1.30
2018-02-22T23:13:33.901Z,1.20
2018-02-22T23:16:00.840Z,1.30
2018-02-22T23:18:28.536Z,1.30
2018-02-22T23:20:55.465Z,1.30
2018-02-22T23:23:22.409Z,1.30
2018-02-22T23:25:49.336Z,1.40
2018-02-22T23:28:17.023Z,1.50
2018-02-22T23:30:44.930Z,1.50
2018-02-22T23:33:11.849Z,1.50
2018-02-22T23:35:38.757Z,1.50
2018-02-22T23:38:06.445Z,1.50
2018-02-22T23:40:33.365Z,1.40
2018-02-22T23:43:01.039Z,1.50
2018-02-22T23:45:27.987Z,1.70
2018-02-22T23:47:54.908Z,1.40
2018-02-22T23:50:21.846Z,1.40
2018-02-22T23:52:48.758Z,1.40
2018-02-22T23:55:15.708Z,1.40
2018-02-22T23:57:42.634Z,1.40
